sensor_id;sensor_type;location;lat;lon;timestamp;temperature;humidity
21417;DHT22;10869;52.238;10.716;2022-07-30T03:02:38;17.10;99.90
21417;DHT22;10869;52.238;10.716;2022-07-30T03:05:05;17.10;99.90
21417;DHT22;10869;52.238;10.716;2022-07-30T03:07:33;17.10;99.90
21417;DHT22;10869;52.238;10.716;2022-07-30T03:10:00;17.10;99.90
21417;DHT22;10869;52.238;10.716;2022-07-30T03:12:29;17.00;99.90
21417;DHT22;10869;52.238;10.716;2022-07-30T03:17:36;16.90;99.90
21417;DHT22;10869;52.238;10.716;2022-07-30T03:20:12;16.80;99.90
21417;DHT22;10869;52.238;10.716;2022-07-30T03:22:43;16.70;99.90
21417;DHT22;10869;52.238;10.716;2022-07-30T03:25:13;16.60;99.90
21417;DHT22;10869;52.238;10.716;2022-07-30T03:27:40;16.50;99.90
21417;DHT22;10869;52.238;10.716;2022-07-30T03:30:08;16.50;99.90
21417;DHT22;10869;52.238;10.716;2022-07-30T03:32:34;16.40;99.90
21417;DHT22;10869;52.238;10.716;2022-07-30T03:35:02;16.40;99.90
21417;DHT22;10869;52.238;10.716;2022-07-30T03:37:29;16.30;99.90
21417;DHT22;10869;52.238;10.716;2022-07-30T03:39:56;16.30;99.90
21417;DHT22;10869;52.238;10.716;2022-07-30T03:42:25;16.30;99.90
21417;DHT22;10869;52.238;10.716;2022-07-30T03:44:52;16.20;99.90
21417;DHT22;10869;52.238;10.716;2022-07-30T03:47:19;16.30;99.90
21417;DHT22;10869;52.238;10.716;2022-07-30T03:49:47;16.20;99.90
21417;DHT22;10869;52.238;10.716;2022-07-30T03:52:12;16.20;99.90
21417;DHT22;10869;52.238;10.716;2022-07-30T03:54:39;16.20;99.90
21417;DHT22;10869;52.238;10.716;2022-07-30T04:00:27;16.30;99.90
21417;DHT22;10869;52.238;10.716;2022-07-30T04:02:53;16.30;99.90
21417;DHT22;10869;52.238;10.716;2022-07-30T04:05:20;16.30;99.90
21417;DHT22;10869;52.238;10.716;2022-07-30T04:07:46;16.30;99.90
21417;DHT22;10869;52.238;10.716;2022-07-30T04:10:12;16.30;99.90
21417;DHT22;10869;52.238;10.716;2022-07-30T04:12:39;16.30;99.90
21417;DHT22;10869;52.238;10.716;2022-07-30T04:15:05;16.30;99.90
21417;DHT22;10869;52.238;10.716;2022-07-30T04:17:42;16.30;99.90
21417;DHT22;10869;52.238;10.716;2022-07-30T04:22:36;16.30;99.90
21417;DHT22;10869;52.238;10.716;2022-07-30T04:25:04;16.30;99.90
21417;DHT22;10869;52.238;10.716;2022-07-30T04:27:31;16.30;99.90
21417;DHT22;10869;52.238;10.716;2022-07-30T04:29:59;16.30;99.90
21417;DHT22;10869;52.238;10.716;2022-07-30T04:32:26;16.30;99.90
21417;DHT22;10869;52.238;10.716;2022-07-30T04:34:54;16.30;99.90
21417;DHT22;10869;52.238;10.716;2022-07-30T04:37:24;16.30;99.90
21417;DHT22;10869;52.238;10.716;2022-07-30T04:39:50;16.30;99.90
21417;DHT22;10869;52.238;10.716;2022-07-30T04:42:20;16.30;99.90
21417;DHT22;10869;52.238;10.716;2022-07-30T04:44:46;16.30;99.90
21417;DHT22;10869;52.238;10.716;2022-07-30T04:47:12;16.30;99.90
21417;DHT22;10869;52.238;10.716;2022-07-30T04:49:39;16.30;99.90
21417;DHT22;10869;52.238;10.716;2022-07-30T04:52:07;16.20;99.90
21417;DHT22;10869;52.238;10.716;2022-07-30T04:54:42;16.20;99.90
21417;DHT22;10869;52.238;10.716;2022-07-30T04:57:10;16.20;99.90
21417;DHT22;10869;52.238;10.716;2022-07-30T04:59:37;16.20;99.90
21417;DHT22;10869;52.238;10.716;2022-07-30T05:02:05;16.20;99.90
21417;DHT22;10869;52.238;10.716;2022-07-30T05:04:33;16.20;99.90
21417;DHT22;10869;52.238;10.716;2022-07-30T05:07:00;16.20;99.90
21417;DHT22;10869;52.238;10.716;2022-07-30T05:09:27;16.20;99.90
21417;DHT22;10869;52.238;10.716;2022-07-30T05:11:54;16.20;99.90
21417;DHT22;10869;52.238;10.716;2022-07-30T05:14:22;16.20;99.90
21417;DHT22;10869;52.238;10.716;2022-07-30T05:16:49;16.20;99.90
21417;DHT22;10869;52.238;10.716;2022-07-30T05:19:15;16.30;99.90
21417;DHT22;10869;52.238;10.716;2022-07-30T05:21:41;16.20;99.90
21417;DHT22;10869;52.238;10.716;2022-07-30T05:24:07;16.30;99.90
21417;DHT22;10869;52.238;10.716;2022-07-30T05:26:33;16.30;99.90
21417;DHT22;10869;52.238;10.716;2022-07-30T05:28:59;16.20;99.90
21417;DHT22;10869;52.238;10.716;2022-07-30T05:31:24;16.30;99.90
21417;DHT22;10869;52.238;10.716;2022-07-30T05:33:51;16.30;99.90
21417;DHT22;10869;52.238;10.716;2022-07-30T05:36:18;16.30;99.90
21417;DHT22;10869;52.238;10.716;2022-07-30T05:38:43;16.30;99.90
21417;DHT22;10869;52.238;10.716;2022-07-30T05:41:09;16.30;99.90
21417;DHT22;10869;52.238;10.716;2022-07-30T05:43:35;16.20;99.90
21417;DHT22;10869;52.238;10.716;2022-07-30T05:46:00;16.30;99.90
21417;DHT22;10869;52.238;10.716;2022-07-30T05:48:26;16.20;99.90
21417;DHT22;10869;52.238;10.716;2022-07-30T05:50:53;16.20;99.90
21417;DHT22;10869;52.238;10.716;2022-07-30T05:53:19;16.30;99.90
21417;DHT22;10869;52.238;10.716;2022-07-30T05:55:44;16.30;99.90
21417;DHT22;10869;52.238;10.716;2022-07-30T05:58:10;16.30;99.90
21417;DHT22;10869;52.238;10.716;2022-07-30T06:04:00;16.40;99.90
21417;DHT22;10869;52.238;10.716;2022-07-30T06:09:51;16.40;99.90
21417;DHT22;10869;52.238;10.716;2022-07-30T06:15:42;16.50;99.90
21417;DHT22;10869;52.238;10.716;2022-07-30T06:18:07;16.50;99.90
21417;DHT22;10869;52.238;10.716;2022-07-30T06:20:33;16.40;99.90
21417;DHT22;10869;52.238;10.716;2022-07-30T06:23:30;16.50;99.90
21417;DHT22;10869;52.238;10.716;2022-07-30T06:25:56;16.50;99.90
21417;DHT22;10869;52.238;10.716;2022-07-30T06:28:22;16.50;99.90
21417;DHT22;10869;52.238;10.716;2022-07-30T06:30:47;16.50;99.90
21417;DHT22;10869;52.238;10.716;2022-07-30T06:33:14;16.60;99.90
21417;DHT22;10869;52.238;10.716;2022-07-30T06:35:40;16.70;99.90
21417;DHT22;10869;52.238;10.716;2022-07-30T06:38:21;16.70;99.90
21417;DHT22;10869;52.238;10.716;2022-07-30T06:40:47;16.70;99.90
21417;DHT22;10869;52.238;10.716;2022-07-30T06:43:13;16.70;99.90
21417;DHT22;10869;52.238;10.716;2022-07-30T06:49:00;16.70;99.90
21417;DHT22;10869;52.238;10.716;2022-07-30T06:51:26;16.70;99.90
21417;DHT22;10869;52.238;10.716;2022-07-30T06:53:52;16.70;99.90
21417;DHT22;10869;52.238;10.716;2022-07-30T06:56:18;16.70;99.90
21417;DHT22;10869;52.238;10.716;2022-07-30T06:58:43;16.70;99.90
21417;DHT22;10869;52.238;10.716;2022-07-30T07:01:29;16.80;99.90
21417;DHT22;10869;52.238;10.716;2022-07-30T07:03:55;16.80;99.90
21417;DHT22;10869;52.238;10.716;2022-07-30T07:06:21;16.80;99.90
21417;DHT22;10869;52.238;10.716;2022-07-30T07:08:47;16.90;99.90
21417;DHT22;10869;52.238;10.716;2022-07-30T07:11:13;16.90;99.90
21417;DHT22;10869;52.238;10.716;2022-07-30T07:13:38;16.90;99.90
21417;DHT22;10869;52.238;10.716;2022-07-30T07:16:04;17.00;99.90
21417;DHT22;10869;52.238;10.716;2022-07-30T07:18:30;17.00;99.90
21417;DHT22;10869;52.238;10.716;2022-07-30T07:20:56;17.10;99.90
21417;DHT22;10869;52.238;10.716;2022-07-30T07:23:22;17.10;99.90
21417;DHT22;10869;52.238;10.716;2022-07-30T07:25:48;17.20;99.90
21417;DHT22;10869;52.238;10.716;2022-07-30T07:28:14;17.30;99.90
21417;DHT22;10869;52.238;10.716;2022-07-30T07:30:40;17.40;99.90
21417;DHT22;10869;52.238;10.716;2022-07-30T07:33:11;17.40;99.90
21417;DHT22;10869;52.238;10.716;2022-07-30T07:35:37;17.50;99.90
21417;DHT22;10869;52.238;10.716;2022-07-30T07:38:03;17.50;99.90
21417;DHT22;10869;52.238;10.716;2022-07-30T07:40:29;17.60;99.90
21417;DHT22;10869;52.238;10.716;2022-07-30T07:42:58;17.60;99.90
21417;DHT22;10869;52.238;10.716;2022-07-30T07:45:23;17.70;99.90
21417;DHT22;10869;52.238;10.716;2022-07-30T07:47:49;17.70;99.90
21417;DHT22;10869;52.238;10.716;2022-07-30T07:50:17;17.70;99.90
21417;DHT22;10869;52.238;10.716;2022-07-30T07:52:46;17.80;99.90
21417;DHT22;10869;52.238;10.716;2022-07-30T07:55:11;17.80;99.90
21417;DHT22;10869;52.238;10.716;2022-07-30T07:57:41;17.90;99.90
21417;DHT22;10869;52.238;10.716;2022-07-30T08:00:08;17.90;99.90
21417;DHT22;10869;52.238;10.716;2022-07-30T08:02:35;17.90;99.90
21417;DHT22;10869;52.238;10.716;2022-07-30T08:05:06;17.90;99.90
21417;DHT22;10869;52.238;10.716;2022-07-30T08:07:41;17.90;99.90
21417;DHT22;10869;52.238;10.716;2022-07-30T08:10:11;17.90;99.90
21417;DHT22;10869;52.238;10.716;2022-07-30T08:12:38;18.00;99.90
21417;DHT22;10869;52.238;10.716;2022-07-30T08:15:05;18.00;99.90
21417;DHT22;10869;52.238;10.716;2022-07-30T08:21:20;18.20;99.90
21417;DHT22;10869;52.238;10.716;2022-07-30T08:23:45;18.30;99.90
21417;DHT22;10869;52.238;10.716;2022-07-30T08:29:37;18.40;99.90
21417;DHT22;10869;52.238;10.716;2022-07-30T08:32:03;18.40;99.90
21417;DHT22;10869;52.238;10.716;2022-07-30T08:34:29;18.50;99.90
21417;DHT22;10869;52.238;10.716;2022-07-30T08:36:55;18.60;99.90
21417;DHT22;10869;52.238;10.716;2022-07-30T08:39:37;18.70;99.90
21417;DHT22;10869;52.238;10.716;2022-07-30T08:42:03;18.60;99.90
21417;DHT22;10869;52.238;10.716;2022-07-30T08:44:37;18.70;99.90
21417;DHT22;10869;52.238;10.716;2022-07-30T08:47:06;18.70;99.90
21417;DHT22;10869;52.238;10.716;2022-07-30T08:49:37;18.70;99.90
21417;DHT22;10869;52.238;10.716;2022-07-30T08:52:06;18.80;99.90
21417;DHT22;10869;52.238;10.716;2022-07-30T08:54:34;18.80;99.90
21417;DHT22;10869;52.238;10.716;2022-07-30T08:57:00;18.80;99.90
21417;DHT22;10869;52.238;10.716;2022-07-30T09:02:45;18.90;99.90
21417;DHT22;10869;52.238;10.716;2022-07-30T09:05:13;19.00;99.90
21417;DHT22;10869;52.238;10.716;2022-07-30T09:07:39;19.00;99.90
21417;DHT22;10869;52.238;10.716;2022-07-30T09:10:10;19.00;99.90
21417;DHT22;10869;52.238;10.716;2022-07-30T09:12:43;19.00;99.90
21417;DHT22;10869;52.238;10.716;2022-07-30T09:15:15;19.10;99.90
21417;DHT22;10869;52.238;10.716;2022-07-30T09:20:34;19.20;99.90
21417;DHT22;10869;52.238;10.716;2022-07-30T09:23:05;19.20;99.90
21417;DHT22;10869;52.238;10.716;2022-07-30T09:25:42;19.20;99.90
21417;DHT22;10869;52.238;10.716;2022-07-30T09:28:11;19.20;99.90
21417;DHT22;10869;52.238;10.716;2022-07-30T09:30:50;19.20;99.90
21417;DHT22;10869;52.238;10.716;2022-07-30T09:33:41;19.20;99.90
21417;DHT22;10869;52.238;10.716;2022-07-30T09:36:09;19.20;99.90
21417;DHT22;10869;52.238;10.716;2022-07-30T09:44:31;19.10;99.90
21417;DHT22;10869;52.238;10.716;2022-07-30T09:46:58;19.10;99.90
21417;DHT22;10869;52.238;10.716;2022-07-30T09:49:29;19.10;99.90
21417;DHT22;10869;52.238;10.716;2022-07-30T09:51:55;19.20;99.90
21417;DHT22;10869;52.238;10.716;2022-07-30T09:54:23;19.20;99.90
21417;DHT22;10869;52.238;10.716;2022-07-30T09:57:03;19.30;99.90
21417;DHT22;10869;52.238;10.716;2022-07-30T09:59:31;19.30;99.90
21417;DHT22;10869;52.238;10.716;2022-07-30T10:01:58;19.40;99.90
21417;DHT22;10869;52.238;10.716;2022-07-30T10:04:28;19.40;99.90
21417;DHT22;10869;52.238;10.716;2022-07-30T10:10:34;19.40;99.90
21417;DHT22;10869;52.238;10.716;2022-07-30T10:13:07;19.50;99.90
21417;DHT22;10869;52.238;10.716;2022-07-30T10:15:35;19.40;99.90
21417;DHT22;10869;52.238;10.716;2022-07-30T10:18:03;19.40;99.90
21417;DHT22;10869;52.238;10.716;2022-07-30T10:20:29;19.50;99.90
21417;DHT22;10869;52.238;10.716;2022-07-30T10:26:10;19.50;99.90
21417;DHT22;10869;52.238;10.716;2022-07-30T10:29:00;19.60;99.90
21417;DHT22;10869;52.238;10.716;2022-07-30T10:31:26;19.60;99.90
21417;DHT22;10869;52.238;10.716;2022-07-30T10:33:52;19.70;99.90
21417;DHT22;10869;52.238;10.716;2022-07-30T10:36:21;19.70;99.90
21417;DHT22;10869;52.238;10.716;2022-07-30T10:38:47;19.80;99.90
21417;DHT22;10869;52.238;10.716;2022-07-30T10:41:35;19.90;99.90
21417;DHT22;10869;52.238;10.716;2022-07-30T10:44:27;19.90;99.90
21417;DHT22;10869;52.238;10.716;2022-07-30T10:46:59;19.90;99.90
21417;DHT22;10869;52.238;10.716;2022-07-30T10:49:32;19.90;99.90
21417;DHT22;10869;52.238;10.716;2022-07-30T10:51:58;20.00;99.90
21417;DHT22;10869;52.238;10.716;2022-07-30T11:03:32;20.20;99.90
21417;DHT22;10869;52.238;10.716;2022-07-30T11:08:50;20.20;99.90
21417;DHT22;10869;52.238;10.716;2022-07-30T11:16:13;20.30;99.90
21417;DHT22;10869;52.238;10.716;2022-07-30T11:19:01;20.30;99.90
21417;DHT22;10869;52.238;10.716;2022-07-30T11:21:28;20.40;99.90
21417;DHT22;10869;52.238;10.716;2022-07-30T11:23:58;20.50;99.90
21417;DHT22;10869;52.238;10.716;2022-07-30T11:29:31;20.80;99.90
21417;DHT22;10869;52.238;10.716;2022-07-30T11:38:14;20.90;99.90
21417;DHT22;10869;52.238;10.716;2022-07-30T11:44:24;21.10;99.90
21417;DHT22;10869;52.238;10.716;2022-07-30T11:46:50;21.10;99.90
21417;DHT22;10869;52.238;10.716;2022-07-30T11:49:52;21.20;99.90
21417;DHT22;10869;52.238;10.716;2022-07-30T11:55:44;21.10;99.90
21417;DHT22;10869;52.238;10.716;2022-07-30T11:58:36;21.10;99.90
21417;DHT22;10869;52.238;10.716;2022-07-30T12:04:26;20.90;99.90
21417;DHT22;10869;52.238;10.716;2022-07-30T12:06:52;20.80;99.90
21417;DHT22;10869;52.238;10.716;2022-07-30T12:12:40;20.70;99.90
21417;DHT22;10869;52.238;10.716;2022-07-30T12:15:06;20.70;99.90
21417;DHT22;10869;52.238;10.716;2022-07-30T12:20:59;20.60;99.90
21417;DHT22;10869;52.238;10.716;2022-07-30T12:23:26;20.60;99.90
21417;DHT22;10869;52.238;10.716;2022-07-30T12:25:52;20.50;99.90
21417;DHT22;10869;52.238;10.716;2022-07-30T12:28:24;20.50;99.90
21417;DHT22;10869;52.238;10.716;2022-07-30T12:30:51;20.50;99.90
21417;DHT22;10869;52.238;10.716;2022-07-30T12:33:17;20.50;99.90
21417;DHT22;10869;52.238;10.716;2022-07-30T12:38:14;20.60;99.90
21417;DHT22;10869;52.238;10.716;2022-07-30T12:41:03;20.60;99.90
21417;DHT22;10869;52.238;10.716;2022-07-30T12:43:52;20.60;99.90
21417;DHT22;10869;52.238;10.716;2022-07-30T12:46:23;20.60;99.90
21417;DHT22;10869;52.238;10.716;2022-07-30T12:49:00;20.70;99.90
21417;DHT22;10869;52.238;10.716;2022-07-30T12:54:59;20.70;99.90
21417;DHT22;10869;52.238;10.716;2022-07-30T12:57:25;20.70;99.90
21417;DHT22;10869;52.238;10.716;2022-07-30T13:00:05;20.80;99.90
21417;DHT22;10869;52.238;10.716;2022-07-30T13:02:33;20.90;99.90
21417;DHT22;10869;52.238;10.716;2022-07-30T13:04:59;21.00;99.90
21417;DHT22;10869;52.238;10.716;2022-07-30T13:07:25;21.20;99.90
21417;DHT22;10869;52.238;10.716;2022-07-30T13:10:07;21.20;99.90
21417;DHT22;10869;52.238;10.716;2022-07-30T13:12:33;21.40;99.90
21417;DHT22;10869;52.238;10.716;2022-07-30T13:14:59;21.50;99.90
21417;DHT22;10869;52.238;10.716;2022-07-30T13:17:25;21.60;99.90
21417;DHT22;10869;52.238;10.716;2022-07-30T13:19:51;21.70;99.90
21417;DHT22;10869;52.238;10.716;2022-07-30T13:22:17;21.80;99.90
21417;DHT22;10869;52.238;10.716;2022-07-30T13:24:42;21.80;99.90
21417;DHT22;10869;52.238;10.716;2022-07-30T13:27:08;21.90;99.90
21417;DHT22;10869;52.238;10.716;2022-07-30T13:29:34;22.10;99.90
21417;DHT22;10869;52.238;10.716;2022-07-30T13:32:00;22.10;99.90
21417;DHT22;10869;52.238;10.716;2022-07-30T13:34:25;22.20;99.90
21417;DHT22;10869;52.238;10.716;2022-07-30T13:36:51;22.30;99.90
21417;DHT22;10869;52.238;10.716;2022-07-30T13:39:17;22.30;99.90
21417;DHT22;10869;52.238;10.716;2022-07-30T13:41:42;22.40;99.90
21417;DHT22;10869;52.238;10.716;2022-07-30T13:44:08;22.40;99.90
21417;DHT22;10869;52.238;10.716;2022-07-30T13:46:34;22.50;99.90
21417;DHT22;10869;52.238;10.716;2022-07-30T13:49:00;22.60;99.90
21417;DHT22;10869;52.238;10.716;2022-07-30T13:51:26;22.70;99.90
21417;DHT22;10869;52.238;10.716;2022-07-30T13:53:52;22.90;99.90
21417;DHT22;10869;52.238;10.716;2022-07-30T13:56:17;23.00;99.90
21417;DHT22;10869;52.238;10.716;2022-07-30T13:58:43;23.10;99.90
21417;DHT22;10869;52.238;10.716;2022-07-30T14:01:09;23.30;99.90
21417;DHT22;10869;52.238;10.716;2022-07-30T14:03:35;23.90;99.90
21417;DHT22;10869;52.238;10.716;2022-07-30T14:06:01;24.50;99.90
21417;DHT22;10869;52.238;10.716;2022-07-30T14:08:27;24.70;99.90
21417;DHT22;10869;52.238;10.716;2022-07-30T14:10:53;24.80;99.90
21417;DHT22;10869;52.238;10.716;2022-07-30T14:13:19;24.90;99.90
21417;DHT22;10869;52.238;10.716;2022-07-30T14:15:45;25.10;99.90
21417;DHT22;10869;52.238;10.716;2022-07-30T14:18:10;25.20;99.90
21417;DHT22;10869;52.238;10.716;2022-07-30T14:23:58;25.60;99.60
21417;DHT22;10869;52.238;10.716;2022-07-30T14:26:24;25.80;99.20
21417;DHT22;10869;52.238;10.716;2022-07-30T14:28:50;25.90;99.60
21417;DHT22;10869;52.238;10.716;2022-07-30T14:31:15;26.00;99.00
21417;DHT22;10869;52.238;10.716;2022-07-30T14:33:42;26.10;97.80
21417;DHT22;10869;52.238;10.716;2022-07-30T14:36:08;26.20;96.10
21417;DHT22;10869;52.238;10.716;2022-07-30T14:38:34;26.00;95.50
21417;DHT22;10869;52.238;10.716;2022-07-30T14:41:00;25.90;95.50
21417;DHT22;10869;52.238;10.716;2022-07-30T14:43:26;25.80;95.40
21417;DHT22;10869;52.238;10.716;2022-07-30T14:45:52;25.60;95.60
21417;DHT22;10869;52.238;10.716;2022-07-30T14:51:40;25.30;94.10
21417;DHT22;10869;52.238;10.716;2022-07-30T14:57:28;24.70;95.10
21417;DHT22;10869;52.238;10.716;2022-07-30T15:03:16;24.20;95.70
21417;DHT22;10869;52.238;10.716;2022-07-30T15:09:04;23.80;96.40
21417;DHT22;10869;52.238;10.716;2022-07-30T15:11:34;23.70;97.00
21417;DHT22;10869;52.238;10.716;2022-07-30T15:14:02;23.60;97.10
21417;DHT22;10869;52.238;10.716;2022-07-30T15:19:51;23.50;97.60
21417;DHT22;10869;52.238;10.716;2022-07-30T15:22:18;23.40;96.90
21417;DHT22;10869;52.238;10.716;2022-07-30T15:24:44;23.40;97.20
21417;DHT22;10869;52.238;10.716;2022-07-30T15:27:10;23.40;97.50
21417;DHT22;10869;52.238;10.716;2022-07-30T15:29:36;23.40;96.00
21417;DHT22;10869;52.238;10.716;2022-07-30T15:32:02;23.40;96.40
21417;DHT22;10869;52.238;10.716;2022-07-30T15:34:28;23.30;96.90
21417;DHT22;10869;52.238;10.716;2022-07-30T15:36:58;23.30;97.10
21417;DHT22;10869;52.238;10.716;2022-07-30T15:39:24;23.20;97.30
21417;DHT22;10869;52.238;10.716;2022-07-30T15:41:50;23.20;98.10
21417;DHT22;10869;52.238;10.716;2022-07-30T15:44:18;23.10;98.70
21417;DHT22;10869;52.238;10.716;2022-07-30T15:46:44;23.10;98.50
21417;DHT22;10869;52.238;10.716;2022-07-30T15:49:10;23.10;98.50
21417;DHT22;10869;52.238;10.716;2022-07-30T15:51:36;23.00;98.30
21417;DHT22;10869;52.238;10.716;2022-07-30T15:54:02;23.00;98.70
21417;DHT22;10869;52.238;10.716;2022-07-30T15:56:27;22.90;99.20
21417;DHT22;10869;52.238;10.716;2022-07-30T15:58:55;22.80;99.50
21417;DHT22;10869;52.238;10.716;2022-07-30T16:01:22;22.80;99.40
21417;DHT22;10869;52.238;10.716;2022-07-30T16:03:50;22.80;99.90
21417;DHT22;10869;52.238;10.716;2022-07-30T16:06:19;22.80;99.70
21417;DHT22;10869;52.238;10.716;2022-07-30T16:08:45;22.70;99.70
21417;DHT22;10869;52.238;10.716;2022-07-30T16:11:11;22.70;99.90
21417;DHT22;10869;52.238;10.716;2022-07-30T16:13:37;22.60;99.90
21417;DHT22;10869;52.238;10.716;2022-07-30T16:16:02;22.60;99.90
21417;DHT22;10869;52.238;10.716;2022-07-30T16:18:28;22.60;99.90
21417;DHT22;10869;52.238;10.716;2022-07-30T16:20:54;22.50;99.90
21417;DHT22;10869;52.238;10.716;2022-07-30T16:23:23;22.50;99.90
21417;DHT22;10869;52.238;10.716;2022-07-30T16:29:11;22.40;99.90
21417;DHT22;10869;52.238;10.716;2022-07-30T16:31:37;22.40;99.90
21417;DHT22;10869;52.238;10.716;2022-07-30T16:37:27;22.30;99.90
21417;DHT22;10869;52.238;10.716;2022-07-30T16:43:16;22.20;99.90
21417;DHT22;10869;52.238;10.716;2022-07-30T16:45:42;22.10;99.90
21417;DHT22;10869;52.238;10.716;2022-07-30T16:48:08;22.10;99.90
21417;DHT22;10869;52.238;10.716;2022-07-30T16:50:42;22.10;99.90
21417;DHT22;10869;52.238;10.716;2022-07-30T16:53:09;22.10;99.90
21417;DHT22;10869;52.238;10.716;2022-07-30T16:55:35;22.00;99.90
21417;DHT22;10869;52.238;10.716;2022-07-30T17:01:23;22.00;99.90
21417;DHT22;10869;52.238;10.716;2022-07-30T17:03:49;22.00;99.90
21417;DHT22;10869;52.238;10.716;2022-07-30T17:06:14;22.00;99.90
21417;DHT22;10869;52.238;10.716;2022-07-30T17:12:03;21.80;99.90
21417;DHT22;10869;52.238;10.716;2022-07-30T17:14:30;21.70;99.90
21417;DHT22;10869;52.238;10.716;2022-07-30T17:20:18;21.60;99.90
21417;DHT22;10869;52.238;10.716;2022-07-30T17:23:21;21.60;99.90
21417;DHT22;10869;52.238;10.716;2022-07-30T17:25:46;21.50;99.90
21417;DHT22;10869;52.238;10.716;2022-07-30T17:28:12;21.40;99.90
21417;DHT22;10869;52.238;10.716;2022-07-30T17:30:38;21.30;99.90
21417;DHT22;10869;52.238;10.716;2022-07-30T17:33:04;21.20;99.90
21417;DHT22;10869;52.238;10.716;2022-07-30T17:35:31;21.10;99.90
21417;DHT22;10869;52.238;10.716;2022-07-30T17:37:57;21.10;99.90
21417;DHT22;10869;52.238;10.716;2022-07-30T17:40:23;21.10;99.90
21417;DHT22;10869;52.238;10.716;2022-07-30T17:42:49;21.00;99.90
21417;DHT22;10869;52.238;10.716;2022-07-30T17:45:14;21.00;99.90
21417;DHT22;10869;52.238;10.716;2022-07-30T17:47:40;20.90;99.90
21417;DHT22;10869;52.238;10.716;2022-07-30T17:50:06;20.90;99.90
21417;DHT22;10869;52.238;10.716;2022-07-30T17:52:33;20.80;99.90
21417;DHT22;10869;52.238;10.716;2022-07-30T17:54:58;20.80;99.90
21417;DHT22;10869;52.238;10.716;2022-07-30T17:57:24;20.80;99.90
21417;DHT22;10869;52.238;10.716;2022-07-30T17:59:50;20.70;99.90
21417;DHT22;10869;52.238;10.716;2022-07-30T18:02:16;20.70;99.90
21417;DHT22;10869;52.238;10.716;2022-07-30T18:04:42;20.70;99.90
21417;DHT22;10869;52.238;10.716;2022-07-30T18:07:08;20.60;99.90
21417;DHT22;10869;52.238;10.716;2022-07-30T18:09:34;20.60;99.90
21417;DHT22;10869;52.238;10.716;2022-07-30T18:12:01;20.60;99.90
21417;DHT22;10869;52.238;10.716;2022-07-30T18:14:26;20.50;99.90
21417;DHT22;10869;52.238;10.716;2022-07-30T18:16:52;20.50;99.90
21417;DHT22;10869;52.238;10.716;2022-07-30T18:19:21;20.40;99.90
21417;DHT22;10869;52.238;10.716;2022-07-30T18:21:47;20.40;99.90
21417;DHT22;10869;52.238;10.716;2022-07-30T18:24:13;20.30;99.90
21417;DHT22;10869;52.238;10.716;2022-07-30T18:26:38;20.20;99.90
21417;DHT22;10869;52.238;10.716;2022-07-30T18:29:24;20.10;99.90
21417;DHT22;10869;52.238;10.716;2022-07-30T18:31:50;19.90;99.90
21417;DHT22;10869;52.238;10.716;2022-07-30T18:34:16;19.70;99.90
21417;DHT22;10869;52.238;10.716;2022-07-30T18:36:42;19.60;99.90
21417;DHT22;10869;52.238;10.716;2022-07-30T18:39:07;19.50;99.90
21417;DHT22;10869;52.238;10.716;2022-07-30T18:41:33;19.40;99.90
21417;DHT22;10869;52.238;10.716;2022-07-30T18:44:02;19.20;99.90
21417;DHT22;10869;52.238;10.716;2022-07-30T18:46:30;19.10;99.90
21417;DHT22;10869;52.238;10.716;2022-07-30T18:48:56;19.00;99.90
21417;DHT22;10869;52.238;10.716;2022-07-30T18:51:23;18.90;99.90
21417;DHT22;10869;52.238;10.716;2022-07-30T18:53:50;18.80;99.90
21417;DHT22;10869;52.238;10.716;2022-07-30T18:56:16;18.80;99.90
21417;DHT22;10869;52.238;10.716;2022-07-30T18:58:43;18.70;99.90
21417;DHT22;10869;52.238;10.716;2022-07-30T19:01:11;18.60;99.90
21417;DHT22;10869;52.238;10.716;2022-07-30T19:03:38;18.60;99.90
21417;DHT22;10869;52.238;10.716;2022-07-30T19:06:04;18.60;99.90
21417;DHT22;10869;52.238;10.716;2022-07-30T19:08:30;18.60;99.90
21417;DHT22;10869;52.238;10.716;2022-07-30T19:14:18;18.50;99.90
21417;DHT22;10869;52.238;10.716;2022-07-30T19:16:44;18.50;99.90
21417;DHT22;10869;52.238;10.716;2022-07-30T19:19:10;18.40;99.90
21417;DHT22;10869;52.238;10.716;2022-07-30T19:21:39;18.40;99.90
21417;DHT22;10869;52.238;10.716;2022-07-30T19:24:05;18.40;99.90
21417;DHT22;10869;52.238;10.716;2022-07-30T19:26:31;18.40;99.90
21417;DHT22;10869;52.238;10.716;2022-07-30T19:28:57;18.40;99.90
21417;DHT22;10869;52.238;10.716;2022-07-30T19:31:23;18.40;99.90
21417;DHT22;10869;52.238;10.716;2022-07-30T19:37:39;18.40;99.90
21417;DHT22;10869;52.238;10.716;2022-07-30T19:40:05;18.30;99.90
21417;DHT22;10869;52.238;10.716;2022-07-30T19:42:31;18.30;99.90
21417;DHT22;10869;52.238;10.716;2022-07-30T19:44:56;18.30;99.90
21417;DHT22;10869;52.238;10.716;2022-07-30T19:47:22;18.30;99.90
21417;DHT22;10869;52.238;10.716;2022-07-30T19:49:54;18.30;99.90
21417;DHT22;10869;52.238;10.716;2022-07-30T19:55:42;18.30;99.90
21417;DHT22;10869;52.238;10.716;2022-07-30T19:58:07;18.20;99.90
21417;DHT22;10869;52.238;10.716;2022-07-30T20:00:36;18.20;99.90
21417;DHT22;10869;52.238;10.716;2022-07-30T20:06:24;18.20;99.90
21417;DHT22;10869;52.238;10.716;2022-07-30T20:08:49;18.20;99.90
21417;DHT22;10869;52.238;10.716;2022-07-30T20:11:16;18.10;99.90
21417;DHT22;10869;52.238;10.716;2022-07-30T20:13:42;18.10;99.90
21417;DHT22;10869;52.238;10.716;2022-07-30T20:16:07;18.10;99.90
21417;DHT22;10869;52.238;10.716;2022-07-30T20:18:37;18.10;99.90
21417;DHT22;10869;52.238;10.716;2022-07-30T20:21:04;18.10;99.90
21417;DHT22;10869;52.238;10.716;2022-07-30T20:23:30;18.10;99.90
21417;DHT22;10869;52.238;10.716;2022-07-30T20:25:56;18.00;99.90
21417;DHT22;10869;52.238;10.716;2022-07-30T20:28:22;18.00;99.90
21417;DHT22;10869;52.238;10.716;2022-07-30T20:30:48;18.00;99.90
21417;DHT22;10869;52.238;10.716;2022-07-30T20:36:36;17.90;99.90
21417;DHT22;10869;52.238;10.716;2022-07-30T20:39:02;17.80;99.90
21417;DHT22;10869;52.238;10.716;2022-07-30T20:41:28;17.80;99.90
21417;DHT22;10869;52.238;10.716;2022-07-30T20:43:54;17.70;99.90
21417;DHT22;10869;52.238;10.716;2022-07-30T20:46:20;17.70;99.90
21417;DHT22;10869;52.238;10.716;2022-07-30T20:48:46;17.70;99.90
21417;DHT22;10869;52.238;10.716;2022-07-30T20:54:34;17.60;99.90
21417;DHT22;10869;52.238;10.716;2022-07-30T20:57:00;17.60;99.90
21417;DHT22;10869;52.238;10.716;2022-07-30T20:59:28;17.50;99.90